createdAt,value
2018-01-21T00:00:37.162Z,28.17
2018-01-21T00:03:05.420Z,30.40
2018-01-21T00:05:34.787Z,29.13
2018-01-21T00:08:03.023Z,27.10
2018-01-21T00:10:31.241Z,30.63
2018-01-21T00:12:59.468Z,27.10
2018-01-21T00:15:27.713Z,27.00
2018-01-21T00:17:55.933Z,29.87
2018-01-21T00:20:24.159Z,27.90
2018-01-21T00:22:53.170Z,28.30
2018-01-21T00:25:21.424Z,26.20
2018-01-21T00:27:49.677Z,27.17
2018-01-21T00:30:17.945Z,29.73
2018-01-21T00:32:46.237Z,27.23
2018-01-21T00:35:15.330Z,29.67
2018-01-21T00:37:43.563Z,26.00
2018-01-21T00:40:11.821Z,26.60
2018-01-21T00:42:40.061Z,25.20
2018-01-21T00:45:09.119Z,24.27
2018-01-21T00:47:37.337Z,24.93
2018-01-21T00:50:06.573Z,24.87
2018-01-21T00:52:34.788Z,25.10
2018-01-21T00:55:03.835Z,25.37
2018-01-21T00:57:32.077Z,30.87
2018-01-21T01:00:00.360Z,31.93
2018-01-21T01:02:29.357Z,32.50
2018-01-21T01:04:58.360Z,34.33
2018-01-21T01:07:26.600Z,31.80
2018-01-21T01:09:54.927Z,40.20
2018-01-21T01:12:23.187Z,34.37
2018-01-21T01:14:52.168Z,32.53
2018-01-21T01:17:20.510Z,29.83
2018-01-21T01:19:48.811Z,27.47
2018-01-21T01:22:17.827Z,32.93
2018-01-21T01:24:46.056Z,29.00
2018-01-21T01:27:14.303Z,30.23
2018-01-21T01:29:42.570Z,29.10
2018-01-21T01:32:10.824Z,26.57
2018-01-21T01:34:39.084Z,26.83
2018-01-21T01:37:07.320Z,23.57
2018-01-21T01:39:35.568Z,26.93
2018-01-21T01:42:03.785Z,26.90
2018-01-21T01:44:32.025Z,30.13
2018-01-21T01:47:00.257Z,28.60
2018-01-21T01:49:28.507Z,25.60
2018-01-21T01:51:56.744Z,25.77
2018-01-21T01:54:24.978Z,26.57
2018-01-21T01:56:53.985Z,24.83
2018-01-21T01:59:22.988Z,27.80
2018-01-21T02:01:52.060Z,27.90
2018-01-21T02:04:21.600Z,30.13
2018-01-21T02:06:49.883Z,29.93
2018-01-21T02:09:18.116Z,29.80
2018-01-21T02:11:47.096Z,31.53
2018-01-21T02:14:16.083Z,31.43
2018-01-21T02:16:44.422Z,32.47
2018-01-21T02:19:12.680Z,35.07
2018-01-21T02:21:40.931Z,32.93
2018-01-21T02:24:09.409Z,30.80
2018-01-21T02:26:38.401Z,40.43
2018-01-21T02:29:07.394Z,34.47
2018-01-21T02:31:36.389Z,33.40
2018-01-21T02:34:04.680Z,34.20
2018-01-21T02:36:32.982Z,37.13
2018-01-21T02:39:01.270Z,34.53
2018-01-21T02:41:29.560Z,35.23
2018-01-21T02:43:58.564Z,39.73
2018-01-21T02:46:26.796Z,35.83
2018-01-21T02:48:55.025Z,35.40
2018-01-21T02:51:24.035Z,33.00
2018-01-21T02:53:52.505Z,38.63
2018-01-21T02:56:21.490Z,34.77
2018-01-21T02:58:50.490Z,33.70
2018-01-21T03:01:18.721Z,34.90
2018-01-21T03:03:46.980Z,36.40
2018-01-21T03:06:15.203Z,32.80
2018-01-21T03:08:44.225Z,37.73
2018-01-21T03:11:12.498Z,36.80
2018-01-21T03:13:40.738Z,37.63
2018-01-21T03:16:08.985Z,40.60
2018-01-21T03:18:37.248Z,39.63
2018-01-21T03:21:05.513Z,39.20
2018-01-21T03:23:33.796Z,34.90
2018-01-21T03:26:02.789Z,38.20
2018-01-21T03:28:31.013Z,41.77
2018-01-21T03:31:00.085Z,42.60
2018-01-21T03:33:28.333Z,39.17
2018-01-21T03:35:56.571Z,41.47
2018-01-21T03:38:24.826Z,38.83
2018-01-21T03:40:53.136Z,43.20
2018-01-21T03:43:21.373Z,38.70
2018-01-21T03:45:49.882Z,39.23
2018-01-21T03:48:18.121Z,38.73
2018-01-21T03:50:46.556Z,39.77
2018-01-21T03:53:14.758Z,39.43
2018-01-21T03:55:43.013Z,41.33
2018-01-21T03:58:11.285Z,36.83
2018-01-21T04:00:39.518Z,36.97
2018-01-21T04:03:07.779Z,36.27
2018-01-21T04:05:36.019Z,38.60
2018-01-21T04:08:04.233Z,37.37
2018-01-21T04:10:32.449Z,42.73
2018-01-21T04:13:00.752Z,38.33
2018-01-21T04:15:28.977Z,35.13
2018-01-21T04:17:57.722Z,34.70
2018-01-21T04:20:25.953Z,35.13
2018-01-21T04:22:54.185Z,36.10
2018-01-21T04:25:22.430Z,35.00
2018-01-21T04:27:50.790Z,34.73
2018-01-21T04:30:19.005Z,36.73
2018-01-21T04:32:47.223Z,35.50
2018-01-21T04:35:15.695Z,36.77
2018-01-21T04:37:44.693Z,40.40
2018-01-21T04:40:12.990Z,38.77
2018-01-21T04:42:41.225Z,39.00
2018-01-21T04:45:10.226Z,40.03
2018-01-21T04:47:38.452Z,38.97
2018-01-21T04:50:06.697Z,34.57
2018-01-21T04:52:34.950Z,40.10
2018-01-21T04:55:03.990Z,41.20
2018-01-21T04:57:32.242Z,37.80
2018-01-21T05:00:00.805Z,39.90
2018-01-21T05:02:29.790Z,41.47
2018-01-21T05:04:58.053Z,36.50
2018-01-21T05:07:26.290Z,36.50
2018-01-21T05:09:54.626Z,38.87
2018-01-21T05:12:22.897Z,35.70
2018-01-21T05:14:51.116Z,35.13
2018-01-21T05:17:19.388Z,35.80
2018-01-21T05:19:47.631Z,40.37
2018-01-21T05:22:15.929Z,41.53
2018-01-21T05:24:44.156Z,38.37
2018-01-21T05:27:12.419Z,35.90
2018-01-21T05:29:40.746Z,41.30
2018-01-21T05:32:08.964Z,44.40
2018-01-21T05:34:38.704Z,41.97
2018-01-21T05:37:06.953Z,35.73
2018-01-21T05:39:35.965Z,34.43
2018-01-21T05:42:04.966Z,37.30
2018-01-21T05:44:33.969Z,37.60
2018-01-21T05:47:02.237Z,40.50
2018-01-21T05:49:31.243Z,34.03
2018-01-21T05:51:59.510Z,37.60
2018-01-21T05:54:28.212Z,35.03
2018-01-21T05:56:56.449Z,35.17
2018-01-21T05:59:25.462Z,39.07
2018-01-21T06:01:53.747Z,38.00
2018-01-21T06:04:22.754Z,40.63
2018-01-21T06:06:51.013Z,39.23
2018-01-21T06:09:19.284Z,41.37
2018-01-21T06:11:47.528Z,39.20
2018-01-21T06:14:15.768Z,39.07
2018-01-21T06:16:44.009Z,36.90
2018-01-21T06:19:12.245Z,36.27
2018-01-21T06:21:40.525Z,38.20
2018-01-21T06:24:08.789Z,38.30
2018-01-21T06:26:37.045Z,39.53
2018-01-21T06:29:05.588Z,38.80
2018-01-21T06:31:33.882Z,41.17
2018-01-21T06:34:02.245Z,41.10
2018-01-21T06:36:30.504Z,39.67
2018-01-21T06:38:58.761Z,38.53
2018-01-21T06:41:27.013Z,42.50
2018-01-21T06:43:55.252Z,40.77
2018-01-21T06:46:23.497Z,39.03
2018-01-21T06:48:53.103Z,41.07
2018-01-21T06:51:22.120Z,41.07
2018-01-21T06:56:48.429Z,35.53
2018-01-21T07:05:09.847Z,39.90
2018-01-21T07:07:38.098Z,42.37
2018-01-21T07:10:07.093Z,40.97
2018-01-21T07:12:35.329Z,41.30
2018-01-21T07:15:03.558Z,42.40
2018-01-21T07:17:31.797Z,41.23
2018-01-21T07:20:00.062Z,43.23
2018-01-21T07:22:29.185Z,41.10
2018-01-21T07:24:58.181Z,44.20
2018-01-21T07:27:26.439Z,37.20
2018-01-21T07:29:55.430Z,38.90
2018-01-21T07:32:24.434Z,38.33
2018-01-21T07:34:53.447Z,40.33
2018-01-21T07:37:21.669Z,37.90
2018-01-21T07:39:49.905Z,41.00
2018-01-21T07:42:18.140Z,40.60
2018-01-21T07:44:46.410Z,40.43
2018-01-21T07:47:15.434Z,41.00
2018-01-21T07:49:43.697Z,40.20
2018-01-21T07:52:33.370Z,40.83
2018-01-21T07:55:01.665Z,38.83
2018-01-21T07:57:29.937Z,39.30
2018-01-21T07:59:58.181Z,43.87
2018-01-21T08:02:26.473Z,41.33
2018-01-21T08:04:54.771Z,46.20
2018-01-21T08:07:23.116Z,43.70
2018-01-21T08:09:51.469Z,44.67
2018-01-21T08:12:19.701Z,43.47
2018-01-21T08:14:48.053Z,42.73
2018-01-21T08:17:16.349Z,44.47
2018-01-21T08:19:44.611Z,46.80
2018-01-21T08:22:12.878Z,47.23
2018-01-21T08:24:41.562Z,46.10
2018-01-21T08:27:09.830Z,52.80
2018-01-21T08:29:38.138Z,40.80
2018-01-21T08:32:06.492Z,51.20
2018-01-21T08:34:41.142Z,49.80
2018-01-21T08:37:15.958Z,48.20
2018-01-21T08:39:50.487Z,42.23
2018-01-21T08:42:27.413Z,44.20
2018-01-21T08:44:55.782Z,37.17
2018-01-21T08:47:24.018Z,35.13
2018-01-21T08:49:52.319Z,44.57
2018-01-21T08:52:20.542Z,36.63
2018-01-21T08:54:48.778Z,36.67
2018-01-21T08:57:16.997Z,36.43
2018-01-21T08:59:46.010Z,41.90
2018-01-21T09:02:14.237Z,35.80
2018-01-21T09:04:42.555Z,38.43
2018-01-21T09:07:10.800Z,38.97
2018-01-21T09:09:39.821Z,37.27
2018-01-21T09:12:08.094Z,38.27
2018-01-21T09:14:36.371Z,39.97
2018-01-21T09:17:04.638Z,41.83
2018-01-21T09:19:32.937Z,40.10
2018-01-21T09:22:01.181Z,35.33
2018-01-21T09:24:29.672Z,36.13
2018-01-21T09:26:58.736Z,41.57
2018-01-21T09:29:27.050Z,36.33
2018-01-21T09:31:55.237Z,42.50
2018-01-21T09:34:23.501Z,41.50
2018-01-21T09:36:51.781Z,40.97
2018-01-21T09:39:20.038Z,37.70
2018-01-21T09:41:48.282Z,40.40
2018-01-21T09:44:16.544Z,41.20
2018-01-21T09:46:44.766Z,37.20
2018-01-21T09:49:13.765Z,38.53
2018-01-21T09:51:42.786Z,43.70
2018-01-21T09:54:11.025Z,39.87
2018-01-21T09:56:40.056Z,43.60
2018-01-21T09:59:08.377Z,54.00
2018-01-21T10:01:37.451Z,48.87
2018-01-21T10:04:06.397Z,47.60
2018-01-21T10:06:34.661Z,55.77
2018-01-21T10:09:02.891Z,51.40
2018-01-21T10:11:31.115Z,51.50
2018-01-21T10:14:00.149Z,50.67
2018-01-21T10:16:28.397Z,52.33
2018-01-21T10:18:56.646Z,55.10
2018-01-21T10:21:24.940Z,49.77
2018-01-21T10:23:53.194Z,51.10
2018-01-21T10:26:22.194Z,52.83
2018-01-21T10:28:51.237Z,52.57
2018-01-21T10:31:19.481Z,49.97
2018-01-21T10:33:47.741Z,45.73
2018-01-21T10:36:15.983Z,50.67
2018-01-21T10:38:45.041Z,56.20
2018-01-21T10:41:13.295Z,47.13
2018-01-21T10:43:41.581Z,51.23
2018-01-21T10:46:09.883Z,51.13
2018-01-21T10:48:38.058Z,54.40
2018-01-21T10:51:06.314Z,49.73
2018-01-21T10:53:34.540Z,50.10
2018-01-21T10:56:02.841Z,48.53
2018-01-21T10:58:31.081Z,58.47
2018-01-21T11:01:02.293Z,49.77
2018-01-21T11:03:30.529Z,49.23
2018-01-21T11:05:59.564Z,56.37
2018-01-21T11:08:28.332Z,51.30
2018-01-21T11:10:56.561Z,58.53
2018-01-21T11:13:24.838Z,59.43
2018-01-21T11:15:53.071Z,58.73
2018-01-21T11:18:21.281Z,54.33
2018-01-21T11:20:49.506Z,67.97
2018-01-21T11:23:17.733Z,53.17
2018-01-21T11:25:45.974Z,61.50
2018-01-21T11:28:14.226Z,56.97
2018-01-21T11:30:42.453Z,64.97
2018-01-21T11:33:10.658Z,67.00
2018-01-21T11:35:39.656Z,56.97
2018-01-21T11:38:07.909Z,59.83
2018-01-21T11:40:36.157Z,58.80
2018-01-21T11:43:04.373Z,59.43
2018-01-21T11:45:33.385Z,60.27
2018-01-21T11:48:01.610Z,59.53
2018-01-21T11:50:29.907Z,63.03
2018-01-21T11:52:58.481Z,59.50
2018-01-21T11:55:27.485Z,59.40
2018-01-21T11:57:56.485Z,66.77
2018-01-21T12:00:25.529Z,64.20
2018-01-21T12:02:53.709Z,69.50
2018-01-21T12:05:21.984Z,71.60
2018-01-21T12:07:50.222Z,63.97
2018-01-21T12:10:18.477Z,70.87
2018-01-21T12:12:46.702Z,69.90
2018-01-21T12:15:14.942Z,70.57
2018-01-21T12:17:43.181Z,60.07
2018-01-21T12:20:11.433Z,54.43
2018-01-21T12:22:39.674Z,67.17
2018-01-21T12:25:07.891Z,62.17
2018-01-21T12:27:36.180Z,54.67
2018-01-21T12:30:05.195Z,57.90
2018-01-21T12:32:33.419Z,58.53
2018-01-21T12:35:01.651Z,60.63
2018-01-21T12:37:29.900Z,57.40
2018-01-21T12:39:58.921Z,121.07
2018-01-21T12:42:27.201Z,55.80
2018-01-21T12:44:55.814Z,65.53
2018-01-21T12:47:24.757Z,55.97
2018-01-21T12:49:53.774Z,62.40
2018-01-21T12:52:22.001Z,59.80
2018-01-21T12:54:50.342Z,54.60
2018-01-21T12:57:18.580Z,56.03
2018-01-21T12:59:46.832Z,55.20
2018-01-21T13:02:15.073Z,59.00
2018-01-21T13:04:43.305Z,60.10
2018-01-21T13:07:12.299Z,57.13
2018-01-21T13:09:40.537Z,61.73
2018-01-21T13:12:08.776Z,54.03
2018-01-21T13:14:37.017Z,60.03
2018-01-21T13:17:06.006Z,60.27
2018-01-21T13:19:35.017Z,59.07
2018-01-21T13:22:03.257Z,59.77
2018-01-21T13:24:32.284Z,58.17
2018-01-21T13:27:00.540Z,56.80
2018-01-21T13:29:29.537Z,51.17
2018-01-21T13:31:58.541Z,56.37
2018-01-21T13:34:26.781Z,53.30
2018-01-21T13:36:55.037Z,54.83
2018-01-21T13:39:23.285Z,48.23
2018-01-21T13:41:51.546Z,47.53
2018-01-21T13:44:20.113Z,47.23
2018-01-21T13:46:48.377Z,49.67
2018-01-21T13:49:16.596Z,53.00
2018-01-21T13:51:45.181Z,53.47
2018-01-21T13:54:13.405Z,53.30
2018-01-21T13:56:41.629Z,52.63
2018-01-21T13:59:09.875Z,49.13
2018-01-21T14:01:38.103Z,52.60
2018-01-21T14:04:06.343Z,52.30
2018-01-21T14:06:34.576Z,52.33
2018-01-21T14:09:02.826Z,47.23
2018-01-21T14:11:31.092Z,50.13
2018-01-21T14:13:59.341Z,49.67
2018-01-21T14:16:27.589Z,46.63
2018-01-21T14:18:55.825Z,45.90
2018-01-21T14:21:24.051Z,46.77
2018-01-21T14:23:53.045Z,49.60
2018-01-21T14:26:21.273Z,46.33
2018-01-21T14:28:49.543Z,43.90
2018-01-21T14:31:17.798Z,52.10
2018-01-21T14:33:46.034Z,47.67
2018-01-21T14:36:14.350Z,49.57
2018-01-21T14:38:43.321Z,46.00
2018-01-21T14:41:11.724Z,41.87
2018-01-21T14:43:40.053Z,46.83
2018-01-21T14:46:08.333Z,43.23
2018-01-21T14:48:37.331Z,40.37
2018-01-21T14:51:06.338Z,46.17
2018-01-21T14:53:34.616Z,43.00
2018-01-21T14:56:03.627Z,39.73
2018-01-21T14:58:31.896Z,42.97
2018-01-21T15:01:01.106Z,39.60
2018-01-21T15:03:29.394Z,40.77
2018-01-21T15:05:57.621Z,40.07
2018-01-21T15:08:25.901Z,45.27
2018-01-21T15:10:54.182Z,45.93
2018-01-21T15:13:23.256Z,45.40
2018-01-21T15:15:51.504Z,52.07
2018-01-21T15:18:19.802Z,47.23
2018-01-21T15:20:48.850Z,45.57
2018-01-21T15:23:17.100Z,47.77
2018-01-21T15:25:46.069Z,43.87
2018-01-21T15:28:15.078Z,43.73
2018-01-21T15:30:43.311Z,44.47
2018-01-21T15:33:12.362Z,46.60
2018-01-21T15:35:40.601Z,42.53
2018-01-21T15:38:09.117Z,42.00
2018-01-21T15:40:37.558Z,45.53
2018-01-21T15:43:05.930Z,47.17
2018-01-21T15:45:34.452Z,45.57
2018-01-21T15:48:02.597Z,50.33
2018-01-21T15:50:30.847Z,50.50
2018-01-21T15:52:58.893Z,49.17
2018-01-21T15:55:27.781Z,46.93
2018-01-21T15:57:56.091Z,60.80
2018-01-21T16:00:24.289Z,57.27
2018-01-21T16:02:52.724Z,55.33
2018-01-21T16:05:22.342Z,52.97
2018-01-21T16:07:50.709Z,51.97
2018-01-21T16:13:16.696Z,56.80
2018-01-21T16:15:45.173Z,59.00
2018-01-21T16:18:13.573Z,49.53
2018-01-21T16:20:41.933Z,48.60
2018-01-21T16:23:10.257Z,45.93
2018-01-21T16:25:38.512Z,49.50
2018-01-21T16:28:06.818Z,53.27
2018-01-21T16:30:35.878Z,51.57
2018-01-21T16:33:04.390Z,55.83
2018-01-21T16:35:32.636Z,50.57
2018-01-21T16:38:12.608Z,50.67
2018-01-21T16:40:40.888Z,50.90
2018-01-21T16:43:10.699Z,49.30
2018-01-21T16:45:38.984Z,48.57
2018-01-21T16:48:07.257Z,50.43
2018-01-21T16:50:35.501Z,52.87
2018-01-21T16:53:03.808Z,53.50
2018-01-21T16:55:32.921Z,56.07
2018-01-21T16:58:02.245Z,46.83
2018-01-21T17:00:30.502Z,52.93
2018-01-21T17:02:58.853Z,55.87
2018-01-21T17:05:27.377Z,64.13
2018-01-21T17:07:55.718Z,57.97
2018-01-21T17:10:24.227Z,63.60
2018-01-21T17:12:52.536Z,52.10
2018-01-21T17:15:20.834Z,55.07
2018-01-21T17:17:49.913Z,53.87
2018-01-21T17:20:18.265Z,52.93
2018-01-21T17:22:47.255Z,51.80
2018-01-21T17:25:16.294Z,53.17
2018-01-21T17:27:44.738Z,48.67
2018-01-21T17:30:15.533Z,54.43
2018-01-21T17:32:45.841Z,51.17
2018-01-21T17:35:14.118Z,49.40
2018-01-21T17:37:42.425Z,52.00
2018-01-21T17:40:11.710Z,44.97
2018-01-21T17:42:40.750Z,48.73
2018-01-21T17:45:09.226Z,47.93
2018-01-21T17:47:38.405Z,50.07
2018-01-21T17:50:06.694Z,43.97
2018-01-21T17:52:35.076Z,50.80
2018-01-21T17:55:03.629Z,50.60
2018-01-21T17:57:31.947Z,48.33
2018-01-21T18:00:00.180Z,45.90
2018-01-21T18:02:28.417Z,43.67
2018-01-21T18:04:56.674Z,48.90
2018-01-21T18:07:24.971Z,51.40
2018-01-21T18:09:53.824Z,53.93
2018-01-21T18:12:23.759Z,57.80
2018-01-21T18:14:52.194Z,45.73
2018-01-21T18:17:20.672Z,48.30
2018-01-21T18:19:48.910Z,42.60
2018-01-21T18:22:17.190Z,39.97
2018-01-21T18:24:45.457Z,38.57
2018-01-21T18:27:14.234Z,54.60
2018-01-21T18:29:42.602Z,49.53
2018-01-21T18:32:10.845Z,43.17
2018-01-21T18:34:39.880Z,47.37
2018-01-21T18:37:08.234Z,48.13
2018-01-21T18:39:36.539Z,47.47
2018-01-21T18:42:04.756Z,44.53
2018-01-21T18:44:33.025Z,58.73
2018-01-21T18:47:02.499Z,51.97
2018-01-21T18:49:30.728Z,47.87
2018-01-21T18:51:59.721Z,44.37
2018-01-21T18:54:28.034Z,51.37
2018-01-21T18:57:13.281Z,48.63
2018-01-21T18:59:41.994Z,47.00
2018-01-21T19:02:10.257Z,45.93
2018-01-21T19:04:38.564Z,49.03
2018-01-21T19:07:07.623Z,39.80
2018-01-21T19:09:36.017Z,45.43
2018-01-21T19:12:04.255Z,44.13
2018-01-21T19:14:32.488Z,50.17
2018-01-21T19:17:00.748Z,49.00
2018-01-21T19:19:29.061Z,44.93
2018-01-21T19:21:57.397Z,45.77
2018-01-21T19:24:25.597Z,42.37
2018-01-21T19:26:53.866Z,49.60
2018-01-21T19:29:22.107Z,49.23
2018-01-21T19:31:50.815Z,43.60
2018-01-21T19:34:20.082Z,40.30
2018-01-21T19:36:48.344Z,44.90
2018-01-21T19:39:22.332Z,36.33
2018-01-21T19:55:21.947Z,38.17
2018-01-21T19:57:51.083Z,35.93
2018-01-21T20:03:17.311Z,36.00
2018-01-21T20:05:46.378Z,39.37
2018-01-21T20:08:15.467Z,35.33
2018-01-21T20:10:44.485Z,34.80
2018-01-21T20:13:12.835Z,38.17
2018-01-21T20:15:41.110Z,39.37
2018-01-21T20:18:10.107Z,36.57
2018-01-21T20:20:39.114Z,33.70
2018-01-21T20:23:07.676Z,37.83
2018-01-21T20:25:35.954Z,39.27
2018-01-21T20:31:01.891Z,47.40
2018-01-21T20:33:30.183Z,41.20
2018-01-21T20:35:58.464Z,41.90
2018-01-21T20:38:26.755Z,46.23
2018-01-21T20:40:55.792Z,44.93
2018-01-21T20:43:24.224Z,45.57
2018-01-21T20:45:53.404Z,57.43
2018-01-21T20:48:22.480Z,67.67
2018-01-21T20:50:56.473Z,57.33
2018-01-21T20:53:30.508Z,64.83
2018-01-21T20:55:58.817Z,54.43
2018-01-21T20:58:27.089Z,55.53
2018-01-21T21:00:55.419Z,53.67
2018-01-21T21:03:23.675Z,57.33
2018-01-21T21:05:51.949Z,48.27
2018-01-21T21:08:20.179Z,57.50
2018-01-21T21:10:48.555Z,55.40
2018-01-21T21:13:16.881Z,58.20
2018-01-21T21:15:45.321Z,52.07
2018-01-21T21:18:13.616Z,53.00
2018-01-21T21:20:42.806Z,51.90
2018-01-21T21:23:11.077Z,48.67
2018-01-21T21:25:39.317Z,56.77
2018-01-21T21:31:07.131Z,46.70
2018-01-21T21:33:35.670Z,44.37
2018-01-21T21:36:04.209Z,44.30
2018-01-21T21:38:33.447Z,46.70
2018-01-21T21:41:01.849Z,44.60
2018-01-21T21:43:30.694Z,46.90
2018-01-21T21:45:59.461Z,41.70
2018-01-21T21:48:28.305Z,40.23
2018-01-21T21:50:56.985Z,39.40
2018-01-21T21:53:26.525Z,41.57
2018-01-21T21:55:55.303Z,37.40
2018-01-21T21:58:24.628Z,43.20
2018-01-21T22:00:53.742Z,41.93
2018-01-21T22:03:22.425Z,39.80
2018-01-21T22:05:51.191Z,42.03
2018-01-21T22:08:20.399Z,39.40
2018-01-21T22:10:48.911Z,38.90
2018-01-21T22:13:17.677Z,41.00
2018-01-21T22:15:47.249Z,45.17
2018-01-21T22:18:15.866Z,38.50
2018-01-21T22:20:45.887Z,39.17
2018-01-21T22:23:14.607Z,43.17
2018-01-21T22:25:44.072Z,42.60
2018-01-21T22:28:14.049Z,41.57
2018-01-21T22:30:43.375Z,39.07
2018-01-21T22:33:12.993Z,40.10
2018-01-21T22:35:41.552Z,40.77
2018-01-21T22:38:10.111Z,40.90
2018-01-21T22:40:39.536Z,40.37
2018-01-21T22:43:09.097Z,40.57
2018-01-21T22:45:37.495Z,41.80
2018-01-21T22:48:06.534Z,39.40
2018-01-21T22:50:34.752Z,34.73
2018-01-21T22:53:03.000Z,41.03
2018-01-21T22:55:31.274Z,34.60
2018-01-21T22:57:59.589Z,34.93
2018-01-21T23:00:27.867Z,34.57
2018-01-21T23:02:56.937Z,34.20
2018-01-21T23:05:25.965Z,35.07
2018-01-21T23:07:54.232Z,38.70
2018-01-21T23:13:20.988Z,38.00
2018-01-21T23:15:49.545Z,39.03
2018-01-21T23:18:17.841Z,34.30
2018-01-21T23:21:05.030Z,39.90
2018-01-21T23:23:33.277Z,35.07
2018-01-21T23:26:01.530Z,36.07
2018-01-21T23:28:29.844Z,40.93
2018-01-21T23:30:58.100Z,36.27
2018-01-21T23:33:27.171Z,31.97
2018-01-21T23:35:55.450Z,35.63
2018-01-21T23:38:23.685Z,32.67
2018-01-21T23:40:52.776Z,32.60
2018-01-21T23:43:21.062Z,33.23
2018-01-21T23:45:49.383Z,33.30
2018-01-21T23:48:17.599Z,36.87
2018-01-21T23:50:45.948Z,35.73
2018-01-21T23:53:14.185Z,32.03
2018-01-21T23:55:42.447Z,31.30
2018-01-21T23:58:10.793Z,32.53
